Map

Track Data

SID SEASON NUMBER BASIN SUBBASIN NAME ISO_TIME NATURE LAT LON WMO_WIND WMO_PRES WMO_AGENCY TRACK_TYPE DIST2LAND LANDFALL IFLAG USA_AGENCY USA_ATCF_ID USA_LAT USA_LON USA_RECORD USA_STATUS USA_WIND USA_PRES USA_SSHS USA_R34_NE USA_R34_SE USA_R34_SW USA_R34_NW USA_R50_NE USA_R50_SE USA_R50_SW USA_R50_NW USA_R64_NE USA_R64_SE USA_R64_SW USA_R64_NW USA_POCI USA_ROCI USA_RMW USA_EYE TOKYO_LAT TOKYO_LON TOKYO_GRADE TOKYO_WIND TOKYO_PRES TOKYO_R50_DIR TOKYO_R50_LONG TOKYO_R50_SHORT TOKYO_R30_DIR TOKYO_R30_LONG TOKYO_R30_SHORT TOKYO_LAND CMA_LAT CMA_LON CMA_CAT CMA_WIND CMA_PRES HKO_LAT HKO_LON HKO_CAT HKO_WIND HKO_PRES NEWDELHI_LAT NEWDELHI_LON NEWDELHI_GRADE NEWDELHI_WIND NEWDELHI_PRES NEWDELHI_CI NEWDELHI_DP NEWDELHI_POCI REUNION_LAT REUNION_LON REUNION_TYPE REUNION_WIND REUNION_PRES REUNION_TNUM REUNION_CI REUNION_RMW REUNION_R34_NE REUNION_R34_SE REUNION_R34_SW REUNION_R34_NW REUNION_R50_NE REUNION_R50_SE REUNION_R50_SW REUNION_R50_NW REUNION_R64_NE REUNION_R64_SE REUNION_R64_SW REUNION_R64_NW BOM_LAT BOM_LON BOM_TYPE BOM_WIND BOM_PRES BOM_TNUM BOM_CI BOM_RMW BOM_R34_NE BOM_R34_SE BOM_R34_SW BOM_R34_NW BOM_R50_NE BOM_R50_SE BOM_R50_SW BOM_R50_NW BOM_R64_NE BOM_R64_SE BOM_R64_SW BOM_R64_NW BOM_ROCI BOM_POCI BOM_EYE BOM_POS_METHOD BOM_PRES_METHOD NADI_LAT NADI_LON NADI_CAT NADI_WIND NADI_PRES WELLINGTON_LAT WELLINGTON_LON WELLINGTON_WIND WELLINGTON_PRES DS824_LAT DS824_LON DS824_STAGE DS824_WIND DS824_PRES TD9636_LAT TD9636_LON TD9636_STAGE TD9636_WIND TD9636_PRES TD9635_LAT TD9635_LON TD9635_WIND TD9635_PRES TD9635_ROCI NEUMANN_LAT NEUMANN_LON NEUMANN_CLASS NEUMANN_WIND NEUMANN_PRES MLC_LAT MLC_LON MLC_CLASS MLC_WIND MLC_PRES USA_GUST BOM_GUST BOM_GUST_PER REUNION_GUST REUNION_GUST_PER USA_SEAHGT USA_SEARAD_NE USA_SEARAD_SE USA_SEARAD_SW USA_SEARAD_NW STORM_SPEED STORM_DIR
1919246N20145 1919 34 WP MM NOT_NAMED 1919-09-03 09:00:00 NR 20.3000 145.300 main 1713 1645 __________O___ -1 20.3000 145.300 4 15 317
1919246N20145 1919 34 WP MM NOT_NAMED 1919-09-03 12:00:00 NR 20.8421 144.760 main 1645 1577 __________P___ -1 20.8421 144.760 4 15 317
1919246N20145 1919 34 WP MM NOT_NAMED 1919-09-03 15:00:00 NR 21.3766 144.234 main 1564 1499 __________P___ -1 21.3766 144.234 4 14 318
1919246N20145 1919 34 WP MM NOT_NAMED 1919-09-03 18:00:00 NR 21.8978 143.741 main 1496 1430 __________P___ -1 21.8978 143.741 4 13 320
1919246N20145 1919 34 WP MM NOT_NAMED 1919-09-03 21:00:00 NR 22.4000 143.300 main 1430 1361 __________O___ -1 22.4000 143.300 4 12 323
1919246N20145 1919 34 WP MM NOT_NAMED 1919-09-04 00:00:00 NR 22.8871 142.927 main 1361 1298 __________P___ -1 22.8871 142.927 4 12 328
1919246N20145 1919 34 WP MM NOT_NAMED 1919-09-04 03:00:00 NR 23.3997 142.621 main 1298 1229 __________P___ -1 23.3997 142.621 4 12 335
1919246N20145 1919 34 WP MM NOT_NAMED 1919-09-04 06:00:00 NR 23.9874 142.380 main 1229 1152 __________P___ -1 23.9874 142.380 4 14 343
1919246N20145 1919 34 WP MM NOT_NAMED 1919-09-04 09:00:00 NR 24.7000 142.200 main 1152 1047 __________O___ -1 24.7000 142.200 4 17 345
1919246N20145 1919 34 WP MM NOT_NAMED 1919-09-04 12:00:00 NR 25.6503 141.905 main 1036 923 __________P___ -1 25.6503 141.905 4 21 347
1919246N20145 1919 34 WP MM NOT_NAMED 1919-09-04 15:00:00 NR 26.7158 141.688 main 923 814 __________P___ -1 26.7158 141.688 4 22 354
1919246N20145 1919 34 WP MM NOT_NAMED 1919-09-04 18:00:00 NR 27.7985 141.650 main 806 716 __________P___ -1 27.7985 141.650 4 21 5
1919246N20145 1919 34 WP MM NOT_NAMED 1919-09-04 21:00:00 NR 28.8000 141.900 main 706 635 __________O___ -1 28.8000 141.900 4 20 22
1919246N20145 1919 34 WP MM NOT_NAMED 1919-09-05 00:00:00 NR 29.6405 142.504 main 639 598 __________P___ -1 29.6405 142.504 4 21 40
1919246N20145 1919 34 WP MM NOT_NAMED 1919-09-05 03:00:00 NR 30.3745 143.413 main 598 594 __________P___ -1 30.3745 143.413 4 22 52
1919246N20145 1919 34 WP MM NOT_NAMED 1919-09-05 06:00:00 NR 30.9958 144.541 main 603 603 __________P___ -1 30.9958 144.541 4 23 61
1919246N20145 1919 34 WP MM NOT_NAMED 1919-09-05 09:00:00 NR 31.5000 145.800 main 648 648 __________O___ -1 31.5000 145.800 4 24 68
1919246N20145 1919 34 WP MM NOT_NAMED 1919-09-05 12:00:00 NR 31.8894 147.113 main 711 711 __________P___ -1 31.8894 147.113 4 24 73
1919246N20145 1919 34 WP MM NOT_NAMED 1919-09-05 15:00:00 NR 32.1852 148.457 main 800 800 __________P___ -1 32.1852 148.457 4 24 77
1919246N20145 1919 34 WP MM NOT_NAMED 1919-09-05 18:00:00 NR 32.4134 149.823 main 896 896 __________P___ -1 32.4134 149.823 4 24 80
1919246N20145 1919 34 WP MM NOT_NAMED 1919-09-05 21:00:00 NR 32.6000 151.200 main 1006 __________O___ -1 32.6000 151.200 4 23 81

Digital Typhoon Data and Search

About IBTrACS Database

This database is a web-friendly format of International Best Track Archive for Climate Stewardship (IBTrACS), a global best track data archive curated by NOAA dating back to 1842.

Updated: 2021-10-27